Time;durP1;ratioP1;P1;durP2;ratioP2;P2;SDS_P1;SDS_P2;PMS_P1;PMS_P2;Temp;Humidity;BMP_temperature;BMP_pressure;BME280_temperature;BME280_humidity;BME280_pressure;Samples;Min_cycle;Max_cycle;Signal;HPM_P1;HPM_P2
2020/12/28 00:02:09;;;;;;;2.47;2.27;;;2.40;99.90;;;;;;5024783;28;20201;-80
2020/12/28 00:04:40;;;;;;;4.47;3.50;;;2.40;99.90;;;;;;5025348;28;20402;-80
2020/12/28 00:07:06;;;;;;;3.07;1.87;;;2.40;99.90;;;;;;5007464;28;20408;-80
2020/12/28 00:09:32;;;;;;;2.70;2.20;;;2.50;99.90;;;;;;5023210;28;20408;-80
2020/12/28 00:11:58;;;;;;;2.93;2.57;;;2.40;99.90;;;;;;5023105;28;20496;-80
2020/12/28 00:14:25;;;;;;;3.33;2.90;;;2.50;99.90;;;;;;5023940;28;20396;-80
2020/12/28 00:16:52;;;;;;;2.30;2.10;;;2.50;99.90;;;;;;4986132;28;20413;-80
2020/12/28 00:19:20;;;;;;;3.43;2.77;;;2.50;99.90;;;;;;5002672;28;20405;-80
2020/12/28 00:21:49;;;;;;;2.20;2.10;;;2.50;99.90;;;;;;4986266;28;20448;-80
2020/12/28 00:24:15;;;;;;;2.30;2.13;;;2.50;99.90;;;;;;4968767;28;20894;-80
2020/12/28 00:26:43;;;;;;;3.10;2.83;;;2.50;99.90;;;;;;4968945;28;20268;-80
2020/12/28 00:29:15;;;;;;;3.00;2.80;;;2.70;99.90;;;;;;4968892;28;20900;-80
2020/12/28 00:31:44;;;;;;;3.90;3.47;;;2.60;99.90;;;;;;4946622;29;20441;-80
2020/12/28 00:34:12;;;;;;;2.73;2.17;;;2.40;99.90;;;;;;4945859;29;20478;-80
2020/12/28 00:36:38;;;;;;;3.73;2.90;;;2.50;99.90;;;;;;4954984;28;20420;-80
2020/12/28 00:39:05;;;;;;;3.67;3.10;;;2.30;99.90;;;;;;4924230;29;20508;-79
2020/12/28 00:41:35;;;;;;;2.70;2.50;;;2.30;99.90;;;;;;4932326;29;20468;-78
2020/12/28 00:44:02;;;;;;;2.87;2.60;;;2.30;99.90;;;;;;4935626;29;20420;-79
2020/12/28 00:46:32;;;;;;;3.27;3.00;;;2.30;99.90;;;;;;4926548;29;20976;-79
2020/12/28 00:48:58;;;;;;;3.50;2.70;;;2.20;99.90;;;;;;4925250;29;21009;-80
2020/12/28 00:51:23;;;;;;;3.83;2.63;;;2.30;99.90;;;;;;4925843;29;20460;-80
2020/12/28 00:53:50;;;;;;;3.73;3.47;;;2.30;99.90;;;;;;4926307;29;20192;-79
2020/12/28 00:56:15;;;;;;;3.93;2.87;;;2.20;99.90;;;;;;4924939;29;20252;-80
2020/12/28 00:58:47;;;;;;;3.00;2.80;;;2.30;99.90;;;;;;4956476;29;20464;-80
2020/12/28 01:01:14;;;;;;;3.70;3.40;;;2.20;99.90;;;;;;4939353;29;20228;-78
2020/12/28 01:03:43;;;;;;;3.23;2.50;;;2.10;99.90;;;;;;4975331;28;20438;-80
2020/12/28 01:06:10;;;;;;;3.10;2.80;;;2.10;99.90;;;;;;4958431;29;20976;-79
2020/12/28 01:08:37;;;;;;;5.87;2.90;;;2.00;99.90;;;;;;4979891;28;20418;-80
2020/12/28 01:11:02;;;;;;;3.27;2.30;;;1.90;99.90;;;;;;4981163;28;20407;-79
2020/12/28 01:13:31;;;;;;;3.50;2.57;;;1.90;99.90;;;;;;4966169;28;20386;-80
2020/12/28 01:15:59;;;;;;;2.63;2.40;;;1.90;99.90;;;;;;4966012;28;20402;-80
2020/12/28 01:18:25;;;;;;;5.03;3.20;;;1.90;99.90;;;;;;4967263;28;20171;-80
2020/12/28 01:20:52;;;;;;;2.73;2.20;;;1.90;99.90;;;;;;4954818;28;20461;-79
2020/12/28 01:23:19;;;;;;;3.83;3.20;;;2.00;99.90;;;;;;4977201;28;20385;-79
2020/12/28 01:25:45;;;;;;;2.47;2.10;;;1.90;99.90;;;;;;4987546;28;20514;-79
2020/12/28 01:28:35;;;;;;;4.47;2.57;;;2.00;99.90;;;;;;4974266;28;20463;-79
2020/12/28 01:31:01;;;;;;;3.20;2.63;;;2.10;99.90;;;;;;5017965;28;20252;-78
2020/12/28 01:33:28;;;;;;;4.90;3.17;;;2.00;99.90;;;;;;5016598;28;20420;-79
2020/12/28 01:35:55;;;;;;;2.80;2.60;;;1.80;99.90;;;;;;5004786;28;20185;-79
2020/12/28 01:38:21;;;;;;;1.90;1.80;;;1.90;99.90;;;;;;4985953;28;20442;-79
2020/12/28 01:40:46;;;;;;;2.53;2.33;;;1.70;99.90;;;;;;4985474;28;20498;-79
2020/12/28 01:43:17;;;;;;;3.53;2.80;;;1.70;99.90;;;;;;4985970;28;20193;-79
2020/12/28 01:45:45;;;;;;;3.40;3.10;;;1.70;99.90;;;;;;5017862;28;20492;-79
2020/12/28 01:48:13;;;;;;;3.37;2.33;;;1.80;99.90;;;;;;5017223;28;20501;-79
2020/12/28 01:50:39;;;;;;;2.20;2.03;;;2.00;99.90;;;;;;4984873;28;20552;-79
2020/12/28 01:53:06;;;;;;;5.80;3.13;;;2.00;99.90;;;;;;4997449;28;20471;-79
2020/12/28 01:55:33;;;;;;;3.27;3.07;;;2.00;99.90;;;;;;4998278;28;20237;-79
2020/12/28 01:58:00;;;;;;;2.83;2.63;;;2.10;99.90;;;;;;4982132;28;20441;-79
2020/12/28 02:00:26;;;;;;;3.37;3.07;;;2.10;99.90;;;;;;4982179;28;20480;-80
2020/12/28 02:02:52;;;;;;;4.20;3.33;;;2.20;99.90;;;;;;4998032;28;20417;-79
2020/12/28 02:05:18;;;;;;;2.33;2.13;;;2.30;99.90;;;;;;4965443;28;20530;-79
2020/12/28 02:07:45;;;;;;;2.93;2.63;;;2.20;99.90;;;;;;4966389;28;20417;-79
2020/12/28 02:10:23;;;;;;;3.27;2.97;;;2.30;99.90;;;;;;5116144;27;20582;-78
2020/12/28 02:12:49;;;;;;;2.43;2.23;;;2.40;99.90;;;;;;5059912;28;20499;-78
2020/12/28 02:15:25;;;;;;;3.70;3.20;;;2.50;99.90;;;;;;5033315;28;20391;-78
2020/12/28 02:17:51;;;;;;;3.63;3.27;;;2.50;99.90;;;;;;5016421;28;20477;-78
2020/12/28 02:20:17;;;;;;;2.93;2.73;;;2.50;99.90;;;;;;5016905;28;20458;-78
2020/12/28 02:22:44;;;;;;;3.23;2.80;;;2.60;99.90;;;;;;5017364;28;20404;-79
2020/12/28 02:25:10;;;;;;;4.10;2.57;;;2.30;99.90;;;;;;5001640;28;20278;-78
2020/12/28 02:27:37;;;;;;;3.20;2.90;;;2.60;99.90;;;;;;5000549;28;20408;-78
2020/12/28 02:30:04;;;;;;;3.70;3.40;;;2.60;99.90;;;;;;5016854;28;20883;-78
2020/12/28 02:32:30;;;;;;;5.10;3.30;;;2.80;99.90;;;;;;5017341;28;20406;-78
2020/12/28 02:34:56;;;;;;;2.57;2.37;;;2.90;99.90;;;;;;5000768;28;20447;-78
2020/12/28 02:37:22;;;;;;;3.63;3.10;;;2.70;99.90;;;;;;5017381;28;20504;-78
2020/12/28 02:39:48;;;;;;;3.27;3.00;;;2.80;99.90;;;;;;5000078;28;20487;-78
2020/12/28 02:42:14;;;;;;;3.50;3.20;;;2.90;99.90;;;;;;5016471;28;20402;-78
2020/12/28 02:44:41;;;;;;;3.33;2.90;;;2.90;99.90;;;;;;5035256;28;20936;-79
2020/12/28 02:47:07;;;;;;;4.70;3.83;;;3.00;99.90;;;;;;5091061;28;20236;-78
2020/12/28 02:49:33;;;;;;;3.47;3.00;;;2.90;99.90;;;;;;5079356;28;20451;-79
2020/12/28 02:52:05;;;;;;;4.60;2.97;;;2.70;99.90;;;;;;5081791;28;20837;-78
2020/12/28 02:54:32;;;;;;;3.33;2.70;;;2.60;99.90;;;;;;5095740;28;20392;-78
2020/12/28 02:56:58;;;;;;;2.77;2.53;;;2.60;99.90;;;;;;5096223;28;20182;-78
2020/12/28 02:59:23;;;;;;;2.43;2.23;;;2.70;99.90;;;;;;5079322;28;20393;-78
2020/12/28 03:01:52;;;;;;;6.50;3.70;;;2.70;99.90;;;;;;5095975;28;20193;-78
2020/12/28 03:04:18;;;;;;;2.47;2.20;;;2.60;99.90;;;;;;5079046;28;20807;-79
2020/12/28 03:06:45;;;;;;;3.70;3.10;;;2.60;99.90;;;;;;5098124;28;20477;-78
2020/12/28 03:09:11;;;;;;;2.87;2.17;;;2.90;99.90;;;;;;5096782;28;20476;-78
2020/12/28 03:11:44;;;;;;;2.37;2.20;;;2.70;99.90;;;;;;5081738;28;20408;-80
2020/12/28 03:14:11;;;;;;;2.73;2.53;;;2.80;99.90;;;;;;5081329;28;20496;-80
2020/12/28 03:16:37;;;;;;;4.63;2.73;;;2.90;99.90;;;;;;5080613;28;20424;-79
2020/12/28 03:19:04;;;;;;;3.70;2.67;;;2.80;99.90;;;;;;5091813;28;20496;-79
2020/12/28 03:21:30;;;;;;;3.43;2.70;;;2.90;99.90;;;;;;5064223;28;20203;-79
2020/12/28 03:23:57;;;;;;;2.60;2.40;;;2.70;99.90;;;;;;5063736;28;20459;-79
2020/12/28 03:26:26;;;;;;;2.70;2.50;;;2.70;99.90;;;;;;5079599;28;20231;-79
2020/12/28 03:28:53;;;;;;;3.30;2.10;;;2.80;99.90;;;;;;5079746;28;20965;-79
2020/12/28 03:31:18;;;;;;;3.33;2.70;;;2.70;99.90;;;;;;5059488;28;20180;-79
2020/12/28 03:33:44;;;;;;;3.90;3.50;;;2.70;99.90;;;;;;5059618;28;20407;-79
2020/12/28 03:36:10;;;;;;;3.50;3.20;;;2.80;99.90;;;;;;5042618;28;20576;-79
2020/12/28 03:38:39;;;;;;;2.37;2.17;;;2.70;99.90;;;;;;5059551;28;20218;-79
2020/12/28 03:41:04;;;;;;;3.70;2.87;;;2.80;99.90;;;;;;5042010;28;20410;-79
2020/12/28 03:43:30;;;;;;;2.60;2.40;;;2.70;99.90;;;;;;5025767;28;20293;-79
2020/12/28 03:45:56;;;;;;;3.30;3.00;;;2.70;99.90;;;;;;5042394;28;20211;-79
2020/12/28 03:48:22;;;;;;;4.43;2.70;;;2.60;99.90;;;;;;5041758;28;20612;-79
2020/12/28 03:50:49;;;;;;;3.23;3.00;;;2.70;99.90;;;;;;5058711;28;20202;-80
2020/12/28 03:53:15;;;;;;;3.47;2.43;;;2.50;99.90;;;;;;5046219;28;20442;-79
2020/12/28 03:55:40;;;;;;;3.80;3.03;;;2.80;99.90;;;;;;5078257;28;20413;-79
2020/12/28 03:58:06;;;;;;;3.83;2.60;;;2.90;99.90;;;;;;5045674;28;20147;-79
2020/12/28 04:00:33;;;;;;;2.60;2.40;;;2.80;99.90;;;;;;5041775;28;20172;-79
2020/12/28 04:02:59;;;;;;;3.40;2.87;;;3.00;99.90;;;;;;5045018;28;20184;-79
2020/12/28 04:05:25;;;;;;;4.20;2.90;;;3.00;99.90;;;;;;5029182;28;20430;-79
2020/12/28 04:07:52;;;;;;;5.20;2.93;;;3.10;99.90;;;;;;5028936;28;20183;-79
2020/12/28 04:10:18;;;;;;;2.73;2.47;;;3.20;99.90;;;;;;5041106;28;20226;-79
2020/12/28 04:12:44;;;;;;;4.43;3.17;;;3.20;99.90;;;;;;5059211;28;20410;-79
2020/12/28 04:15:09;;;;;;;3.17;2.97;;;3.10;99.90;;;;;;5049112;28;20178;-79
2020/12/28 04:17:37;;;;;;;4.07;2.30;;;3.00;99.90;;;;;;5065317;28;20179;-78
2020/12/28 04:20:22;;;;;;;3.03;2.10;;;2.90;99.90;;;;;;5072032;28;20207;-79
2020/12/28 04:22:48;;;;;;;6.27;3.50;;;2.80;99.90;;;;;;5041702;28;20394;-79
2020/12/28 04:25:15;;;;;;;2.73;2.40;;;2.80;99.90;;;;;;5041498;28;20213;-78
2020/12/28 04:27:43;;;;;;;2.83;2.30;;;2.80;99.90;;;;;;5038122;28;20203;-79
2020/12/28 04:30:09;;;;;;;6.90;2.67;;;2.80;99.90;;;;;;5039187;28;20451;-79
2020/12/28 04:32:36;;;;;;;3.20;2.60;;;2.80;99.90;;;;;;5027490;28;20180;-79
2020/12/28 04:35:06;;;;;;;4.50;2.90;;;2.70;99.90;;;;;;5053426;28;20463;-78
2020/12/28 04:37:32;;;;;;;5.23;3.30;;;2.60;99.90;;;;;;5049845;28;20450;-79
2020/12/28 04:39:58;;;;;;;4.60;2.73;;;2.70;99.90;;;;;;5058561;28;20400;-78
2020/12/28 04:42:27;;;;;;;5.23;3.23;;;2.70;99.90;;;;;;5075389;28;20424;-78
2020/12/28 04:44:55;;;;;;;2.87;2.60;;;2.70;99.90;;;;;;5075054;28;20585;-78
2020/12/28 04:47:22;;;;;;;3.00;2.70;;;2.70;99.90;;;;;;5067049;28;20916;-79
2020/12/28 04:49:48;;;;;;;4.43;2.63;;;2.50;99.90;;;;;;5072783;28;21065;-78
2020/12/28 04:52:16;;;;;;;3.40;3.10;;;2.50;99.90;;;;;;5073713;28;20875;-78
2020/12/28 04:54:45;;;;;;;3.00;2.80;;;2.50;99.90;;;;;;5040369;28;20422;-78
2020/12/28 04:57:11;;;;;;;5.83;2.67;;;2.40;99.90;;;;;;5057612;28;20394;-78
2020/12/28 04:59:46;;;;;;;3.30;3.00;;;2.40;99.90;;;;;;5073619;28;20970;-78
2020/12/28 05:02:11;;;;;;;6.20;2.90;;;2.50;99.90;;;;;;5074259;28;21018;-78
2020/12/28 05:04:37;;;;;;;3.80;2.53;;;2.40;99.90;;;;;;5074529;28;20430;-79
2020/12/28 05:07:06;;;;;;;2.63;2.43;;;2.60;99.90;;;;;;5073513;28;20183;-78
2020/12/28 05:09:33;;;;;;;2.67;2.47;;;2.60;99.90;;;;;;5057777;28;20607;-78
2020/12/28 05:12:03;;;;;;;4.77;3.07;;;2.70;99.90;;;;;;5078323;28;20430;-78
2020/12/28 05:14:30;;;;;;;3.07;2.77;;;2.60;99.90;;;;;;5060468;28;20425;-78
2020/12/28 05:17:02;;;;;;;3.90;2.90;;;2.50;99.90;;;;;;5061372;28;20409;-78
2020/12/28 05:19:29;;;;;;;2.63;2.43;;;2.40;99.90;;;;;;5063054;28;20466;-78
2020/12/28 05:21:56;;;;;;;3.07;2.80;;;2.50;99.90;;;;;;5025762;28;20458;-79
2020/12/28 05:24:22;;;;;;;9.13;2.60;;;2.20;99.90;;;;;;5019069;28;20412;-78
2020/12/28 05:26:51;;;;;;;3.43;2.50;;;2.30;99.90;;;;;;5018805;28;20473;-78
2020/12/28 05:29:20;;;;;;;3.40;2.57;;;2.20;99.90;;;;;;5019499;28;20529;-78
2020/12/28 05:31:50;;;;;;;5.10;3.47;;;2.40;99.90;;;;;;5035259;28;20408;-78
2020/12/28 05:34:28;;;;;;;3.30;3.00;;;2.50;99.90;;;;;;4987275;28;20775;-78
2020/12/28 05:36:57;;;;;;;3.90;2.80;;;2.50;99.90;;;;;;5002734;28;20812;-78
2020/12/28 05:39:26;;;;;;;3.47;3.17;;;2.60;99.90;;;;;;5003103;28;20442;-78
2020/12/28 05:42:07;;;;;;;4.87;3.50;;;2.60;99.90;;;;;;5019611;28;20413;-78
2020/12/28 05:44:35;;;;;;;3.83;2.83;;;2.60;99.90;;;;;;5005129;28;20407;-78
2020/12/28 05:47:07;;;;;;;7.40;3.70;;;2.60;99.90;;;;;;4980487;28;20804;-78
2020/12/28 05:49:37;;;;;;;3.07;2.83;;;2.60;99.90;;;;;;4977029;28;20524;-78
2020/12/28 05:52:06;;;;;;;3.70;3.40;;;2.50;99.90;;;;;;4996691;28;20477;-79
2020/12/28 05:54:36;;;;;;;3.00;2.70;;;2.40;99.90;;;;;;5012744;28;20452;-78
2020/12/28 05:57:04;;;;;;;3.40;3.20;;;2.40;99.90;;;;;;4963801;28;20409;-78
2020/12/28 05:59:32;;;;;;;3.57;3.27;;;2.50;99.90;;;;;;4996960;28;20417;-78
2020/12/28 06:02:01;;;;;;;4.00;3.57;;;2.60;99.90;;;;;;4996519;28;20402;-78
2020/12/28 06:04:29;;;;;;;8.07;3.13;;;2.60;99.90;;;;;;4997359;28;20413;-78
2020/12/28 06:06:58;;;;;;;2.93;2.73;;;2.70;99.90;;;;;;4997319;28;20447;-79
2020/12/28 06:09:24;;;;;;;4.77;3.60;;;2.80;99.90;;;;;;4996177;28;21101;-78
2020/12/28 06:12:09;;;;;;;4.30;4.00;;;2.90;99.90;;;;;;4996940;28;20450;-78
2020/12/28 06:14:37;;;;;;;4.97;3.93;;;2.70;99.90;;;;;;4996548;28;20449;-79
2020/12/28 06:17:08;;;;;;;6.63;2.90;;;2.60;99.90;;;;;;4966636;28;20479;-78
2020/12/28 06:19:34;;;;;;;2.83;2.67;;;2.80;99.90;;;;;;5019855;28;20432;-78
2020/12/28 06:22:02;;;;;;;4.37;2.80;;;2.50;99.90;;;;;;5017492;28;20428;-78
2020/12/28 06:24:32;;;;;;;4.13;3.17;;;2.60;99.90;;;;;;5036518;28;20498;-79
2020/12/28 06:27:09;;;;;;;4.37;4.07;;;2.40;99.90;;;;;;5004114;28;20772;-78
2020/12/28 06:29:37;;;;;;;6.60;3.40;;;2.50;99.90;;;;;;5025091;28;20454;-79
2020/12/28 06:32:12;;;;;;;3.97;3.27;;;2.60;99.90;;;;;;5005066;28;20424;-79
2020/12/28 06:34:43;;;;;;;5.53;3.40;;;2.50;99.90;;;;;;5044005;28;20413;-79
2020/12/28 06:37:10;;;;;;;5.00;3.30;;;2.50;99.90;;;;;;5025139;28;20573;-79
2020/12/28 06:39:36;;;;;;;3.50;2.80;;;2.40;99.90;;;;;;5043493;28;20431;-79
2020/12/28 06:42:13;;;;;;;2.63;2.43;;;2.20;99.90;;;;;;5036913;28;20434;-76
2020/12/28 06:44:42;;;;;;;2.73;2.53;;;2.30;99.90;;;;;;5027265;28;20429;-77
2020/12/28 06:47:20;;;;;;;3.33;2.87;;;2.50;99.90;;;;;;5114686;22;20472;-78
2020/12/28 06:50:10;;;;;;;2.97;2.73;;;2.40;99.90;;;;;;5102606;28;20900;-79
2020/12/28 06:52:37;;;;;;;3.47;3.17;;;2.40;99.90;;;;;;5059687;28;20498;-78
2020/12/28 06:55:09;;;;;;;4.57;3.20;;;2.50;99.90;;;;;;5023438;28;20760;-79
2020/12/28 06:57:35;;;;;;;3.50;3.20;;;2.60;99.90;;;;;;5026363;28;20431;-79
2020/12/28 07:00:12;;;;;;;4.33;3.80;;;2.70;99.90;;;;;;5011595;28;20427;-79
2020/12/28 07:02:39;;;;;;;3.87;2.70;;;2.60;99.90;;;;;;5012764;28;20465;-79
2020/12/28 07:05:05;;;;;;;4.57;3.40;;;2.70;99.90;;;;;;4992713;28;20456;-79
2020/12/28 07:07:43;;;;;;;5.57;3.77;;;2.80;99.90;;;;;;5008955;28;20474;-78
2020/12/28 07:10:15;;;;;;;7.73;3.13;;;2.80;99.90;;;;;;5008813;28;20225;-79
2020/12/28 07:12:48;;;;;;;4.47;3.47;;;2.80;99.90;;;;;;4985432;28;20956;-79
2020/12/28 07:15:16;;;;;;;3.70;3.17;;;2.70;99.90;;;;;;4971261;28;20436;-79
2020/12/28 07:17:42;;;;;;;5.00;3.43;;;2.70;99.90;;;;;;4991911;28;20430;-79
2020/12/28 07:20:12;;;;;;;2.83;2.63;;;2.70;99.90;;;;;;4982608;28;20831;-79
2020/12/28 07:22:41;;;;;;;2.60;2.40;;;2.80;99.90;;;;;;4937351;28;20579;-79
2020/12/28 07:25:08;;;;;;;6.10;4.17;;;2.80;99.90;;;;;;4953085;28;20577;-79
2020/12/28 07:27:40;;;;;;;5.30;3.23;;;3.00;99.90;;;;;;4985737;28;20419;-79
2020/12/28 07:30:08;;;;;;;4.40;3.80;;;3.00;99.90;;;;;;5002875;28;20550;-79
2020/12/28 07:32:35;;;;;;;7.50;4.23;;;2.90;99.90;;;;;;4949918;29;20466;-79
2020/12/28 07:35:05;;;;;;;4.53;3.30;;;2.90;99.90;;;;;;4948090;29;20459;-79
2020/12/28 07:37:39;;;;;;;5.80;3.20;;;3.00;99.90;;;;;;4945222;28;20487;-79
2020/12/28 07:40:07;;;;;;;4.20;3.33;;;3.00;99.90;;;;;;4967654;28;20616;-79
2020/12/28 07:42:33;;;;;;;3.50;2.97;;;3.00;99.90;;;;;;4985489;28;20458;-79
2020/12/28 07:45:07;;;;;;;2.73;2.53;;;2.80;99.90;;;;;;4989721;28;20408;-79
2020/12/28 07:47:46;;;;;;;9.07;3.43;;;2.90;99.90;;;;;;4968310;28;20461;-80
2020/12/28 07:50:15;;;;;;;3.73;2.97;;;2.80;99.90;;;;;;4971164;28;20464;-79
2020/12/28 07:53:09;;;;;;;5.23;3.80;;;2.80;99.90;;;;;;5001774;28;20424;-79
2020/12/28 07:55:48;;;;;;;2.83;2.40;;;2.90;99.90;;;;;;4966729;28;20422;-79
2020/12/28 07:58:36;;;;;;;3.70;3.17;;;2.90;99.90;;;;;;4950716;28;20432;-79
2020/12/28 08:01:16;;;;;;;6.80;3.07;;;2.90;99.90;;;;;;4981783;28;21010;-79
2020/12/28 08:03:51;;;;;;;2.93;2.73;;;3.00;99.90;;;;;;4943090;29;20450;-79
2020/12/28 08:06:21;;;;;;;5.27;4.40;;;2.80;99.90;;;;;;4980765;28;20829;-79
2020/12/28 08:08:47;;;;;;;4.07;3.60;;;2.90;99.90;;;;;;4968384;28;20469;-79
2020/12/28 08:11:23;;;;;;;3.77;3.00;;;2.80;99.90;;;;;;4963496;29;20435;-79
2020/12/28 08:13:50;;;;;;;5.20;2.50;;;2.80;99.90;;;;;;4946815;29;20490;-79
2020/12/28 08:16:19;;;;;;;4.57;3.57;;;2.90;99.90;;;;;;4949607;29;20439;-79
2020/12/28 08:18:48;;;;;;;5.10;4.50;;;3.00;99.90;;;;;;4932878;29;20431;-79
2020/12/28 08:21:15;;;;;;;5.03;4.37;;;3.10;99.90;;;;;;4930421;29;20598;-79
2020/12/28 08:23:49;;;;;;;4.47;3.10;;;2.90;99.90;;;;;;4946139;29;20431;-79
2020/12/28 08:26:18;;;;;;;5.30;4.80;;;2.70;99.90;;;;;;4946852;29;20446;-79
2020/12/28 08:28:47;;;;;;;8.47;4.20;;;2.80;99.90;;;;;;4953474;28;20446;-79
2020/12/28 08:31:14;;;;;;;14.07;5.50;;;3.10;99.90;;;;;;4929463;28;20449;-79
2020/12/28 08:33:40;;;;;;;4.60;3.23;;;3.30;99.90;;;;;;4964978;28;20805;-79
2020/12/28 08:36:06;;;;;;;7.33;3.90;;;3.60;99.90;;;;;;4983609;28;20828;-79
2020/12/28 08:38:32;;;;;;;6.50;4.87;;;3.70;99.90;;;;;;4980896;28;20942;-79
2020/12/28 08:41:00;;;;;;;5.87;4.50;;;3.80;99.90;;;;;;4987287;28;20428;-79
2020/12/28 08:43:26;;;;;;;8.57;5.27;;;4.00;99.90;;;;;;5026102;28;20435;-79
2020/12/28 08:46:04;;;;;;;6.57;4.63;;;4.00;99.90;;;;;;5028283;28;20444;-79
2020/12/28 08:48:36;;;;;;;4.90;4.03;;;3.80;99.90;;;;;;5022550;28;20832;-79
2020/12/28 08:51:01;;;;;;;5.47;4.53;;;3.90;99.90;;;;;;5018738;28;20436;-79
2020/12/28 08:53:30;;;;;;;4.80;4.40;;;4.10;99.90;;;;;;5013626;28;20958;-79
2020/12/28 08:56:02;;;;;;;7.60;5.07;;;4.20;99.90;;;;;;5019568;28;20181;-79
2020/12/28 08:58:28;;;;;;;6.93;5.30;;;4.30;99.90;;;;;;4987199;28;20448;-79
2020/12/28 09:00:54;;;;;;;5.83;3.93;;;4.30;99.90;;;;;;5004733;28;20423;-79
2020/12/28 09:03:20;;;;;;;6.13;4.67;;;4.30;99.90;;;;;;5006523;28;20181;-79
2020/12/28 09:05:47;;;;;;;9.00;4.00;;;4.30;99.90;;;;;;5014597;28;20185;-79
2020/12/28 09:08:13;;;;;;;4.70;3.40;;;4.10;99.90;;;;;;4994260;28;20423;-79
2020/12/28 09:10:40;;;;;;;3.73;3.40;;;4.00;99.90;;;;;;5023791;28;20411;-79
2020/12/28 09:13:06;;;;;;;4.20;3.77;;;3.60;99.90;;;;;;5004315;28;20186;-79
2020/12/28 09:15:32;;;;;;;6.03;3.23;;;3.60;99.90;;;;;;5005960;28;20432;-79
2020/12/28 09:17:58;;;;;;;5.60;4.10;;;3.80;99.90;;;;;;5028856;28;20725;-79
2020/12/28 09:20:23;;;;;;;3.80;3.50;;;3.60;99.90;;;;;;5036840;28;20200;-79
2020/12/28 09:22:50;;;;;;;12.97;4.40;;;3.70;99.90;;;;;;5050647;28;20192;-78
2020/12/28 09:25:17;;;;;;;4.00;3.47;;;3.90;99.90;;;;;;5012490;28;20183;-78
2020/12/28 09:27:46;;;;;;;4.67;3.83;;;4.10;99.90;;;;;;5046800;28;20414;-79
2020/12/28 09:30:12;;;;;;;5.70;3.80;;;4.20;99.90;;;;;;5059310;28;20454;-79
2020/12/28 09:32:39;;;;;;;3.43;3.13;;;3.90;99.90;;;;;;5024331;28;20169;-79
2020/12/28 09:35:06;;;;;;;7.03;4.23;;;4.00;99.90;;;;;;5042217;28;20234;-79
2020/12/28 09:37:36;;;;;;;3.70;3.40;;;3.90;99.90;;;;;;5033249;28;20430;-80
2020/12/28 09:40:04;;;;;;;5.73;4.90;;;3.70;99.90;;;;;;5010668;28;20432;-80
2020/12/28 09:42:30;;;;;;;5.00;4.50;;;3.60;99.90;;;;;;5022288;28;20561;-79
2020/12/28 09:44:55;;;;;;;6.07;4.40;;;3.70;99.90;;;;;;5034578;28;20425;-79
2020/12/28 09:47:21;;;;;;;9.10;5.00;;;3.60;99.90;;;;;;5017498;28;20224;-80
2020/12/28 09:49:50;;;;;;;9.03;4.50;;;3.60;99.90;;;;;;5039715;28;20231;-80
2020/12/28 09:52:18;;;;;;;7.10;4.03;;;3.50;99.90;;;;;;5023118;28;20422;-78
2020/12/28 09:54:44;;;;;;;6.03;4.80;;;3.20;99.90;;;;;;5043942;28;20405;-79
2020/12/28 09:57:10;;;;;;;6.37;5.13;;;3.40;99.90;;;;;;5049750;28;20657;-80
2020/12/28 09:59:40;;;;;;;7.47;6.40;;;3.50;99.90;;;;;;5006664;28;20198;-80
2020/12/28 10:02:08;;;;;;;5.97;5.13;;;3.60;99.90;;;;;;5016530;28;20181;-80
2020/12/28 10:04:38;;;;;;;10.73;5.63;;;3.50;99.90;;;;;;5017020;28;20450;-80
2020/12/28 10:07:06;;;;;;;4.80;4.27;;;3.50;99.90;;;;;;5001254;28;20415;-80
2020/12/28 10:09:53;;;;;;;5.63;4.77;;;3.60;99.90;;;;;;4998776;28;20436;-80
2020/12/28 10:12:21;;;;;;;5.20;3.87;;;3.90;99.90;;;;;;5004761;28;20401;-79
2020/12/28 10:14:47;;;;;;;6.00;4.37;;;4.10;99.90;;;;;;5012876;28;20424;-79
2020/12/28 10:17:13;;;;;;;5.37;4.00;;;4.20;99.90;;;;;;4981528;28;20205;-80
2020/12/28 10:19:39;;;;;;;6.60;4.73;;;4.30;99.90;;;;;;4994551;28;20278;-80
2020/12/28 10:22:11;;;;;;;5.10;4.10;;;4.00;99.90;;;;;;4984147;28;20586;-80
2020/12/28 10:24:37;;;;;;;6.53;4.60;;;4.00;99.90;;;;;;4965084;28;20422;-80
2020/12/28 10:27:05;;;;;;;5.53;4.50;;;4.00;99.90;;;;;;4982045;28;20387;-80
2020/12/28 10:29:32;;;;;;;5.63;4.30;;;3.80;99.90;;;;;;4962476;28;20462;-80
2020/12/28 10:32:02;;;;;;;5.97;4.43;;;3.70;99.90;;;;;;4970383;28;20426;-80
2020/12/28 10:34:32;;;;;;;7.03;4.97;;;3.60;99.90;;;;;;5001772;28;20396;-80
2020/12/28 10:36:58;;;;;;;5.13;4.63;;;3.50;99.90;;;;;;5009169;28;20430;-80
2020/12/28 10:39:25;;;;;;;4.63;4.23;;;3.50;99.90;;;;;;5026012;28;20398;-80
2020/12/28 10:41:51;;;;;;;6.73;4.53;;;3.50;99.90;;;;;;5005701;28;20177;-80
2020/12/28 10:44:19;;;;;;;10.80;5.80;;;3.50;99.90;;;;;;4984573;28;20427;-80
2020/12/28 10:46:45;;;;;;;6.67;5.43;;;3.40;99.90;;;;;;5004825;28;20236;-79
2020/12/28 10:49:11;;;;;;;6.13;4.90;;;3.40;99.90;;;;;;5005409;28;20491;-79
2020/12/28 10:51:38;;;;;;;6.87;5.20;;;3.30;99.90;;;;;;5021563;28;20455;-79
2020/12/28 10:54:04;;;;;;;9.07;6.63;;;3.60;99.90;;;;;;5016772;28;20443;-79
2020/12/28 10:56:34;;;;;;;6.80;6.20;;;3.50;99.90;;;;;;4977182;28;20417;-78
2020/12/28 10:59:00;;;;;;;6.47;4.63;;;3.50;99.90;;;;;;4979682;28;20846;-79
2020/12/28 11:01:27;;;;;;;8.43;6.40;;;3.60;99.90;;;;;;4958291;28;20416;-79
2020/12/28 11:03:54;;;;;;;11.90;6.70;;;3.60;99.90;;;;;;4970336;28;20206;-79
2020/12/28 11:06:21;;;;;;;7.80;5.50;;;3.60;99.90;;;;;;4964842;28;20440;-80
2020/12/28 11:08:48;;;;;;;9.47;5.77;;;3.50;99.90;;;;;;4982943;28;20531;-80
2020/12/28 11:11:16;;;;;;;11.23;6.73;;;3.40;99.90;;;;;;4978005;28;20529;-80
2020/12/28 11:13:43;;;;;;;10.97;6.20;;;3.80;99.90;;;;;;4986614;28;20512;-80
2020/12/28 11:16:09;;;;;;;8.07;5.33;;;3.80;99.90;;;;;;4990435;28;20404;-80
2020/12/28 11:18:34;;;;;;;8.53;6.40;;;3.80;99.90;;;;;;4993775;28;20415;-80
2020/12/28 11:21:01;;;;;;;6.73;5.97;;;3.80;99.90;;;;;;5021024;28;20197;-80
2020/12/28 11:23:58;;;;;;;8.97;6.30;;;3.50;99.90;;;;;;4983138;28;20220;-79
2020/12/28 11:26:18;;;;;;;9.03;5.73;;;3.40;99.90;;;;;;5022766;28;20424;-80
2020/12/28 11:28:47;;;;;;;5.93;5.33;;;3.40;99.90;;;;;;5049730;28;20824;-80
2020/12/28 11:31:15;;;;;;;4.93;4.43;;;3.30;99.90;;;;;;5048094;28;20469;-78
2020/12/28 11:33:42;;;;;;;7.80;4.93;;;3.70;99.90;;;;;;5052006;28;20182;-80
2020/12/28 11:36:09;;;;;;;10.73;5.40;;;3.50;99.90;;;;;;5049721;28;20490;-78
2020/12/28 11:38:35;;;;;;;7.30;5.20;;;3.50;99.90;;;;;;5051298;28;20449;-79
2020/12/28 11:41:01;;;;;;;9.83;5.57;;;3.50;99.90;;;;;;5051646;28;20465;-80
2020/12/28 11:43:28;;;;;;;6.20;5.17;;;3.40;99.90;;;;;;5032674;28;20443;-79
2020/12/28 11:45:55;;;;;;;8.80;6.77;;;3.40;99.90;;;;;;5056775;28;20429;-78
2020/12/28 11:48:23;;;;;;;10.70;6.87;;;3.60;99.90;;;;;;5010795;28;20474;-80
2020/12/28 11:50:49;;;;;;;8.70;7.80;;;3.80;99.90;;;;;;5030205;28;20433;-80
2020/12/28 11:53:15;;;;;;;11.80;7.60;;;4.00;99.90;;;;;;5026097;28;20423;-80
2020/12/28 11:58:24;;;;;;;10.80;6.10;;;3.90;99.90;;;;;;5035875;28;20445;-80
2020/12/28 12:00:50;;;;;;;14.73;7.50;;;3.70;99.90;;;;;;5004298;28;20455;-81
2020/12/28 12:03:16;;;;;;;6.37;5.23;;;3.70;99.90;;;;;;5061845;28;20418;-80
2020/12/28 12:05:43;;;;;;;7.27;5.43;;;3.80;99.90;;;;;;5028824;28;20395;-79
2020/12/28 12:08:12;;;;;;;8.53;6.00;;;3.50;99.90;;;;;;5011769;28;20416;-79
2020/12/28 12:10:38;;;;;;;10.17;6.30;;;3.40;99.90;;;;;;5008486;28;20466;-80
2020/12/28 12:13:04;;;;;;;11.47;7.10;;;3.40;99.90;;;;;;5022958;28;20191;-80
2020/12/28 12:15:29;;;;;;;6.23;5.63;;;3.40;99.90;;;;;;5046888;28;20248;-81
2020/12/28 12:17:55;;;;;;;13.03;5.80;;;3.40;99.90;;;;;;5046798;28;20219;-81
2020/12/28 12:20:21;;;;;;;9.10;5.37;;;3.40;99.90;;;;;;5047026;28;20216;-82
2020/12/28 12:22:47;;;;;;;5.00;4.00;;;3.40;99.90;;;;;;5046416;28;20179;-82
2020/12/28 12:25:12;;;;;;;4.97;4.50;;;3.20;99.90;;;;;;5046686;28;20202;-80
2020/12/28 12:27:38;;;;;;;11.93;4.73;;;3.20;99.90;;;;;;5045864;28;20168;-82
2020/12/28 12:30:04;;;;;;;7.60;6.67;;;3.30;99.90;;;;;;5046394;28;20284;-82
2020/12/28 12:32:30;;;;;;;5.67;4.57;;;3.20;99.90;;;;;;5047545;28;20157;-82
2020/12/28 12:34:56;;;;;;;9.17;5.80;;;3.40;99.90;;;;;;5051621;28;20384;-81
2020/12/28 12:37:22;;;;;;;9.07;5.73;;;3.50;99.90;;;;;;5067891;28;20183;-83
2020/12/28 12:39:47;;;;;;;7.23;4.13;;;3.40;99.90;;;;;;5070695;28;20409;-82
2020/12/28 12:42:13;;;;;;;8.30;6.30;;;3.30;99.90;;;;;;5070487;28;20165;-80
2020/12/28 12:44:42;;;;;;;9.20;6.73;;;3.30;99.90;;;;;;5070326;28;20186;-83
2020/12/28 12:47:09;;;;;;;10.17;7.67;;;3.40;99.90;;;;;;5063734;28;20617;-83
2020/12/28 12:49:35;;;;;;;7.47;6.77;;;3.40;99.90;;;;;;5090284;28;20760;-83
2020/12/28 12:52:18;;;;;;;10.57;7.00;;;3.50;99.90;;;;;;5092587;28;20416;-80
2020/12/28 12:54:45;;;;;;;14.40;6.70;;;3.60;99.90;;;;;;5086423;28;20428;-80
2020/12/28 12:57:11;;;;;;;7.80;6.30;;;3.60;99.90;;;;;;5068653;28;20413;-80
2020/12/28 13:02:22;;;;;;;9.73;7.20;;;3.80;99.90;;;;;;5066696;28;20445;-80
2020/12/28 13:04:48;;;;;;;10.47;7.87;;;3.70;99.90;;;;;;5066464;28;20486;-80
2020/12/28 13:07:13;;;;;;;7.67;6.80;;;3.50;99.90;;;;;;5066963;28;20426;-80